sensor_id;sensor_type;location;lat;lon;timestamp;temperature;humidity
15967;DHT22;15175;48.154;11.534;2022-12-15T00:00:49;2.10;99.90
15967;DHT22;15175;48.154;11.534;2022-12-15T00:03:33;2.10;99.90
15967;DHT22;15175;48.154;11.534;2022-12-15T00:06:19;2.10;99.90
15967;DHT22;15175;48.154;11.534;2022-12-15T00:09:04;2.10;99.90
15967;DHT22;15175;48.154;11.534;2022-12-15T00:11:49;2.10;99.90
15967;DHT22;15175;48.154;11.534;2022-12-15T00:14:33;2.10;99.90
15967;DHT22;15175;48.154;11.534;2022-12-15T00:17:18;2.10;99.90
15967;DHT22;15175;48.154;11.534;2022-12-15T00:20:02;2.10;99.90
15967;DHT22;15175;48.154;11.534;2022-12-15T00:22:48;2.00;99.90
15967;DHT22;15175;48.154;11.534;2022-12-15T00:25:32;2.00;99.90
15967;DHT22;15175;48.154;11.534;2022-12-15T00:28:17;2.00;99.90
15967;DHT22;15175;48.154;11.534;2022-12-15T00:31:01;1.90;99.90
15967;DHT22;15175;48.154;11.534;2022-12-15T00:33:46;1.90;99.90
15967;DHT22;15175;48.154;11.534;2022-12-15T00:36:30;1.90;99.90
15967;DHT22;15175;48.154;11.534;2022-12-15T00:39:16;1.90;99.90
15967;DHT22;15175;48.154;11.534;2022-12-15T00:41:43;1.80;99.90
15967;DHT22;15175;48.154;11.534;2022-12-15T00:44:11;1.80;99.90
15967;DHT22;15175;48.154;11.534;2022-12-15T00:46:39;1.80;99.90
15967;DHT22;15175;48.154;11.534;2022-12-15T00:49:20;1.80;99.90
15967;DHT22;15175;48.154;11.534;2022-12-15T00:52:05;1.90;99.90
15967;DHT22;15175;48.154;11.534;2022-12-15T00:54:51;1.80;99.90
15967;DHT22;15175;48.154;11.534;2022-12-15T00:57:35;1.80;99.90
15967;DHT22;15175;48.154;11.534;2022-12-15T01:00:19;1.80;99.90
15967;DHT22;15175;48.154;11.534;2022-12-15T01:03:09;1.80;99.90
15967;DHT22;15175;48.154;11.534;2022-12-15T01:05:54;1.80;99.90
15967;DHT22;15175;48.154;11.534;2022-12-15T01:08:38;1.80;99.90
15967;DHT22;15175;48.154;11.534;2022-12-15T01:11:24;1.80;99.90
15967;DHT22;15175;48.154;11.534;2022-12-15T01:14:09;1.80;99.90
15967;DHT22;15175;48.154;11.534;2022-12-15T01:16:53;1.80;99.90
15967;DHT22;15175;48.154;11.534;2022-12-15T01:19:38;1.80;99.90
15967;DHT22;15175;48.154;11.534;2022-12-15T01:22:22;1.70;99.90
15967;DHT22;15175;48.154;11.534;2022-12-15T01:24:49;1.70;99.90
15967;DHT22;15175;48.154;11.534;2022-12-15T01:27:18;1.70;99.90
15967;DHT22;15175;48.154;11.534;2022-12-15T01:29:45;1.70;99.90
15967;DHT22;15175;48.154;11.534;2022-12-15T01:32:12;1.70;99.90
15967;DHT22;15175;48.154;11.534;2022-12-15T01:34:39;1.90;99.90
15967;DHT22;15175;48.154;11.534;2022-12-15T01:37:06;1.80;99.90
15967;DHT22;15175;48.154;11.534;2022-12-15T01:39:33;1.80;99.90
15967;DHT22;15175;48.154;11.534;2022-12-15T01:42:14;1.80;99.90
15967;DHT22;15175;48.154;11.534;2022-12-15T01:44:43;1.80;99.90
15967;DHT22;15175;48.154;11.534;2022-12-15T01:47:11;1.70;99.90
15967;DHT22;15175;48.154;11.534;2022-12-15T01:49:39;1.80;99.90
15967;DHT22;15175;48.154;11.534;2022-12-15T01:52:08;1.70;99.90
15967;DHT22;15175;48.154;11.534;2022-12-15T01:54:39;1.70;99.90
15967;DHT22;15175;48.154;11.534;2022-12-15T01:57:13;1.70;99.90
15967;DHT22;15175;48.154;11.534;2022-12-15T01:59:46;1.70;99.90
15967;DHT22;15175;48.154;11.534;2022-12-15T02:02:16;1.70;99.90
15967;DHT22;15175;48.154;11.534;2022-12-15T02:04:44;1.70;99.90
15967;DHT22;15175;48.154;11.534;2022-12-15T02:07:12;1.70;99.90
15967;DHT22;15175;48.154;11.534;2022-12-15T02:09:39;1.70;99.90
15967;DHT22;15175;48.154;11.534;2022-12-15T02:12:14;1.70;99.90
15967;DHT22;15175;48.154;11.534;2022-12-15T02:14:52;1.70;99.90
15967;DHT22;15175;48.154;11.534;2022-12-15T02:17:32;1.60;99.90
15967;DHT22;15175;48.154;11.534;2022-12-15T02:20:32;1.60;99.90
15967;DHT22;15175;48.154;11.534;2022-12-15T02:23:33;1.60;99.90
15967;DHT22;15175;48.154;11.534;2022-12-15T02:29:38;1.60;99.90
15967;DHT22;15175;48.154;11.534;2022-12-15T02:32:14;1.60;99.90
15967;DHT22;15175;48.154;11.534;2022-12-15T02:34:46;1.60;99.90
15967;DHT22;15175;48.154;11.534;2022-12-15T02:37:20;1.60;99.90
15967;DHT22;15175;48.154;11.534;2022-12-15T02:39:49;1.60;99.90
15967;DHT22;15175;48.154;11.534;2022-12-15T02:42:16;1.60;99.90
15967;DHT22;15175;48.154;11.534;2022-12-15T02:44:46;1.70;99.90
15967;DHT22;15175;48.154;11.534;2022-12-15T02:47:26;1.60;99.90
15967;DHT22;15175;48.154;11.534;2022-12-15T02:52:59;1.60;99.90
15967;DHT22;15175;48.154;11.534;2022-12-15T02:55:35;1.60;99.90
15967;DHT22;15175;48.154;11.534;2022-12-15T02:58:10;1.60;99.90
15967;DHT22;15175;48.154;11.534;2022-12-15T03:00:43;1.50;99.90
15967;DHT22;15175;48.154;11.534;2022-12-15T03:03:12;1.50;99.90
15967;DHT22;15175;48.154;11.534;2022-12-15T03:05:45;1.50;99.90
15967;DHT22;15175;48.154;11.534;2022-12-15T03:08:12;1.50;99.90
15967;DHT22;15175;48.154;11.534;2022-12-15T03:10:39;1.50;99.90
15967;DHT22;15175;48.154;11.534;2022-12-15T03:13:06;1.50;99.90
15967;DHT22;15175;48.154;11.534;2022-12-15T03:15:33;1.40;99.90
15967;DHT22;15175;48.154;11.534;2022-12-15T03:18:00;1.40;99.90
15967;DHT22;15175;48.154;11.534;2022-12-15T03:20:28;1.40;99.90
15967;DHT22;15175;48.154;11.534;2022-12-15T03:22:55;1.40;99.90
15967;DHT22;15175;48.154;11.534;2022-12-15T03:25:23;1.40;99.90
15967;DHT22;15175;48.154;11.534;2022-12-15T03:27:50;1.30;99.90
15967;DHT22;15175;48.154;11.534;2022-12-15T03:30:17;1.40;99.90
15967;DHT22;15175;48.154;11.534;2022-12-15T03:32:45;1.30;99.90
15967;DHT22;15175;48.154;11.534;2022-12-15T03:35:12;1.30;99.90
15967;DHT22;15175;48.154;11.534;2022-12-15T03:37:41;1.30;99.90
15967;DHT22;15175;48.154;11.534;2022-12-15T03:40:10;1.30;99.90
15967;DHT22;15175;48.154;11.534;2022-12-15T03:42:38;1.30;99.90
15967;DHT22;15175;48.154;11.534;2022-12-15T03:45:14;1.30;99.90
15967;DHT22;15175;48.154;11.534;2022-12-15T03:47:43;1.30;99.90
15967;DHT22;15175;48.154;11.534;2022-12-15T03:50:11;1.30;99.90
15967;DHT22;15175;48.154;11.534;2022-12-15T03:52:40;1.30;99.90
15967;DHT22;15175;48.154;11.534;2022-12-15T03:55:09;1.30;99.90
15967;DHT22;15175;48.154;11.534;2022-12-15T03:57:36;1.30;99.90
15967;DHT22;15175;48.154;11.534;2022-12-15T04:00:05;1.30;99.90
15967;DHT22;15175;48.154;11.534;2022-12-15T04:02:38;1.20;99.90
15967;DHT22;15175;48.154;11.534;2022-12-15T04:05:06;1.20;99.90
15967;DHT22;15175;48.154;11.534;2022-12-15T04:07:33;1.20;99.90
15967;DHT22;15175;48.154;11.534;2022-12-15T04:10:01;1.20;99.90
15967;DHT22;15175;48.154;11.534;2022-12-15T04:12:28;1.20;99.90
15967;DHT22;15175;48.154;11.534;2022-12-15T04:14:55;1.20;99.90
15967;DHT22;15175;48.154;11.534;2022-12-15T04:17:22;1.20;99.90
15967;DHT22;15175;48.154;11.534;2022-12-15T04:19:49;1.20;99.90
15967;DHT22;15175;48.154;11.534;2022-12-15T04:22:35;1.20;99.90
15967;DHT22;15175;48.154;11.534;2022-12-15T04:25:05;1.20;99.90
15967;DHT22;15175;48.154;11.534;2022-12-15T04:27:50;1.20;99.90
15967;DHT22;15175;48.154;11.534;2022-12-15T04:30:35;1.20;99.90
15967;DHT22;15175;48.154;11.534;2022-12-15T04:33:20;1.30;99.90
15967;DHT22;15175;48.154;11.534;2022-12-15T04:36:06;1.20;99.90
15967;DHT22;15175;48.154;11.534;2022-12-15T04:38:50;1.20;99.90
15967;DHT22;15175;48.154;11.534;2022-12-15T04:41:36;1.10;99.90
15967;DHT22;15175;48.154;11.534;2022-12-15T04:44:21;1.20;99.90
15967;DHT22;15175;48.154;11.534;2022-12-15T04:47:05;1.20;99.90
15967;DHT22;15175;48.154;11.534;2022-12-15T04:49:50;1.20;99.90
15967;DHT22;15175;48.154;11.534;2022-12-15T04:52:34;1.20;99.90
15967;DHT22;15175;48.154;11.534;2022-12-15T04:55:19;1.00;99.90
15967;DHT22;15175;48.154;11.534;2022-12-15T04:58:05;1.00;99.90
15967;DHT22;15175;48.154;11.534;2022-12-15T05:00:51;0.90;99.90
15967;DHT22;15175;48.154;11.534;2022-12-15T05:03:35;0.80;99.90
15967;DHT22;15175;48.154;11.534;2022-12-15T05:06:20;0.80;99.90
15967;DHT22;15175;48.154;11.534;2022-12-15T05:09:04;0.80;99.90
15967;DHT22;15175;48.154;11.534;2022-12-15T05:11:49;0.80;99.90
15967;DHT22;15175;48.154;11.534;2022-12-15T05:14:35;0.80;99.90
15967;DHT22;15175;48.154;11.534;2022-12-15T05:17:20;0.80;99.90
15967;DHT22;15175;48.154;11.534;2022-12-15T05:20:05;0.80;99.90
15967;DHT22;15175;48.154;11.534;2022-12-15T05:22:52;0.80;99.90
15967;DHT22;15175;48.154;11.534;2022-12-15T05:25:37;0.80;99.90
15967;DHT22;15175;48.154;11.534;2022-12-15T05:28:22;0.70;99.90
15967;DHT22;15175;48.154;11.534;2022-12-15T05:31:08;0.70;99.90
15967;DHT22;15175;48.154;11.534;2022-12-15T05:33:53;0.80;99.90
15967;DHT22;15175;48.154;11.534;2022-12-15T05:36:21;0.80;99.90
15967;DHT22;15175;48.154;11.534;2022-12-15T05:38:48;0.80;99.90
15967;DHT22;15175;48.154;11.534;2022-12-15T05:41:16;0.70;99.90
15967;DHT22;15175;48.154;11.534;2022-12-15T05:43:44;0.60;99.90
15967;DHT22;15175;48.154;11.534;2022-12-15T05:46:13;0.60;99.90
15967;DHT22;15175;48.154;11.534;2022-12-15T05:48:40;0.60;99.90
15967;DHT22;15175;48.154;11.534;2022-12-15T05:51:10;0.70;99.90
15967;DHT22;15175;48.154;11.534;2022-12-15T05:53:38;0.60;99.90
15967;DHT22;15175;48.154;11.534;2022-12-15T05:56:07;0.60;99.90
15967;DHT22;15175;48.154;11.534;2022-12-15T05:58:35;0.60;99.90
15967;DHT22;15175;48.154;11.534;2022-12-15T06:01:05;0.60;99.90
15967;DHT22;15175;48.154;11.534;2022-12-15T06:03:34;0.50;99.90
15967;DHT22;15175;48.154;11.534;2022-12-15T06:06:01;0.30;99.90
15967;DHT22;15175;48.154;11.534;2022-12-15T06:08:28;0.30;99.90
15967;DHT22;15175;48.154;11.534;2022-12-15T06:10:56;0.20;99.90
15967;DHT22;15175;48.154;11.534;2022-12-15T06:13:23;0.40;99.90
15967;DHT22;15175;48.154;11.534;2022-12-15T06:15:55;0.30;99.90
15967;DHT22;15175;48.154;11.534;2022-12-15T06:18:23;0.30;99.90
15967;DHT22;15175;48.154;11.534;2022-12-15T06:20:57;0.30;99.90
15967;DHT22;15175;48.154;11.534;2022-12-15T06:23:24;0.20;99.90
15967;DHT22;15175;48.154;11.534;2022-12-15T06:25:52;0.20;99.90
15967;DHT22;15175;48.154;11.534;2022-12-15T06:28:20;0.20;99.90
15967;DHT22;15175;48.154;11.534;2022-12-15T06:30:50;0.20;99.90
15967;DHT22;15175;48.154;11.534;2022-12-15T06:33:18;0.20;99.90
15967;DHT22;15175;48.154;11.534;2022-12-15T06:35:45;0.30;99.90
15967;DHT22;15175;48.154;11.534;2022-12-15T06:38:14;0.20;99.90
15967;DHT22;15175;48.154;11.534;2022-12-15T06:40:41;0.20;99.90
15967;DHT22;15175;48.154;11.534;2022-12-15T06:43:08;0.10;99.90
15967;DHT22;15175;48.154;11.534;2022-12-15T06:45:35;0.10;99.90
15967;DHT22;15175;48.154;11.534;2022-12-15T06:48:03;0.20;99.90
15967;DHT22;15175;48.154;11.534;2022-12-15T06:50:30;0.20;99.90
15967;DHT22;15175;48.154;11.534;2022-12-15T06:52:58;0.30;99.90
15967;DHT22;15175;48.154;11.534;2022-12-15T06:55:27;0.30;99.90
15967;DHT22;15175;48.154;11.534;2022-12-15T06:57:54;0.30;99.90
15967;DHT22;15175;48.154;11.534;2022-12-15T07:00:21;0.30;99.90
15967;DHT22;15175;48.154;11.534;2022-12-15T07:02:48;0.30;99.90
15967;DHT22;15175;48.154;11.534;2022-12-15T07:05:15;0.30;99.90
15967;DHT22;15175;48.154;11.534;2022-12-15T07:07:42;0.30;99.90
15967;DHT22;15175;48.154;11.534;2022-12-15T07:10:09;0.30;99.90
15967;DHT22;15175;48.154;11.534;2022-12-15T07:12:38;0.30;99.90
15967;DHT22;15175;48.154;11.534;2022-12-15T07:15:06;0.30;99.90
15967;DHT22;15175;48.154;11.534;2022-12-15T07:17:34;0.30;99.90
15967;DHT22;15175;48.154;11.534;2022-12-15T07:20:02;0.20;99.90
15967;DHT22;15175;48.154;11.534;2022-12-15T07:22:29;0.10;99.90
15967;DHT22;15175;48.154;11.534;2022-12-15T07:24:56;0.10;99.90
15967;DHT22;15175;48.154;11.534;2022-12-15T07:27:24;0.00;99.90
15967;DHT22;15175;48.154;11.534;2022-12-15T07:29:53;0.10;99.90
15967;DHT22;15175;48.154;11.534;2022-12-15T07:32:20;0.10;99.90
15967;DHT22;15175;48.154;11.534;2022-12-15T07:34:47;0.00;99.90
15967;DHT22;15175;48.154;11.534;2022-12-15T07:37:14;0.00;99.90
15967;DHT22;15175;48.154;11.534;2022-12-15T07:39:41;0.10;99.90
15967;DHT22;15175;48.154;11.534;2022-12-15T07:42:09;0.10;99.90
15967;DHT22;15175;48.154;11.534;2022-12-15T07:44:36;0.20;99.90
15967;DHT22;15175;48.154;11.534;2022-12-15T07:47:04;0.20;99.90
15967;DHT22;15175;48.154;11.534;2022-12-15T07:49:31;0.10;99.90
15967;DHT22;15175;48.154;11.534;2022-12-15T07:51:58;0.10;99.90
15967;DHT22;15175;48.154;11.534;2022-12-15T07:54:25;0.20;99.90
15967;DHT22;15175;48.154;11.534;2022-12-15T07:56:53;0.20;99.90
15967;DHT22;15175;48.154;11.534;2022-12-15T07:59:20;0.10;99.90
15967;DHT22;15175;48.154;11.534;2022-12-15T08:01:48;0.20;99.90
15967;DHT22;15175;48.154;11.534;2022-12-15T08:04:16;0.20;99.90
15967;DHT22;15175;48.154;11.534;2022-12-15T08:06:44;0.30;99.90
15967;DHT22;15175;48.154;11.534;2022-12-15T08:09:11;0.20;99.90
15967;DHT22;15175;48.154;11.534;2022-12-15T08:11:38;0.20;99.90
15967;DHT22;15175;48.154;11.534;2022-12-15T08:14:05;0.20;99.90
15967;DHT22;15175;48.154;11.534;2022-12-15T08:16:32;0.20;99.90
15967;DHT22;15175;48.154;11.534;2022-12-15T08:19:01;0.30;99.90
15967;DHT22;15175;48.154;11.534;2022-12-15T08:21:31;0.20;99.90
15967;DHT22;15175;48.154;11.534;2022-12-15T08:23:58;0.10;99.90
15967;DHT22;15175;48.154;11.534;2022-12-15T08:26:26;0.10;99.90
15967;DHT22;15175;48.154;11.534;2022-12-15T08:28:53;0.10;99.90
15967;DHT22;15175;48.154;11.534;2022-12-15T08:31:22;0.00;99.90
15967;DHT22;15175;48.154;11.534;2022-12-15T08:33:49;0.00;99.90
15967;DHT22;15175;48.154;11.534;2022-12-15T08:36:18;0.00;99.90
15967;DHT22;15175;48.154;11.534;2022-12-15T08:38:47;0.10;99.90
15967;DHT22;15175;48.154;11.534;2022-12-15T08:41:15;0.10;99.90
15967;DHT22;15175;48.154;11.534;2022-12-15T08:43:44;0.00;99.90
15967;DHT22;15175;48.154;11.534;2022-12-15T08:46:12;0.20;99.90
15967;DHT22;15175;48.154;11.534;2022-12-15T08:48:39;0.20;99.90
15967;DHT22;15175;48.154;11.534;2022-12-15T08:51:06;0.30;99.90
15967;DHT22;15175;48.154;11.534;2022-12-15T08:53:34;0.40;99.90
15967;DHT22;15175;48.154;11.534;2022-12-15T08:56:04;0.20;99.90
15967;DHT22;15175;48.154;11.534;2022-12-15T08:58:31;0.20;99.90
15967;DHT22;15175;48.154;11.534;2022-12-15T09:00:59;0.20;99.90
15967;DHT22;15175;48.154;11.534;2022-12-15T09:03:27;0.30;99.90
15967;DHT22;15175;48.154;11.534;2022-12-15T09:05:54;0.40;99.90
15967;DHT22;15175;48.154;11.534;2022-12-15T09:08:22;0.50;99.90
15967;DHT22;15175;48.154;11.534;2022-12-15T09:10:49;0.40;99.90
15967;DHT22;15175;48.154;11.534;2022-12-15T09:13:18;0.40;99.90
15967;DHT22;15175;48.154;11.534;2022-12-15T09:15:45;0.30;99.90
15967;DHT22;15175;48.154;11.534;2022-12-15T09:18:12;0.30;99.90
15967;DHT22;15175;48.154;11.534;2022-12-15T09:20:40;0.30;99.90
15967;DHT22;15175;48.154;11.534;2022-12-15T09:23:07;0.30;99.90
15967;DHT22;15175;48.154;11.534;2022-12-15T09:25:34;0.30;99.90
15967;DHT22;15175;48.154;11.534;2022-12-15T09:28:02;0.30;99.90
15967;DHT22;15175;48.154;11.534;2022-12-15T09:30:30;0.30;99.90
15967;DHT22;15175;48.154;11.534;2022-12-15T09:32:57;0.30;99.90
15967;DHT22;15175;48.154;11.534;2022-12-15T09:35:25;0.30;99.90
15967;DHT22;15175;48.154;11.534;2022-12-15T09:37:52;0.30;99.90
15967;DHT22;15175;48.154;11.534;2022-12-15T09:40:19;0.40;99.90
15967;DHT22;15175;48.154;11.534;2022-12-15T09:42:51;0.50;99.90
15967;DHT22;15175;48.154;11.534;2022-12-15T09:45:21;0.50;99.90
15967;DHT22;15175;48.154;11.534;2022-12-15T09:47:53;0.40;99.90
15967;DHT22;15175;48.154;11.534;2022-12-15T09:50:25;0.50;99.90
15967;DHT22;15175;48.154;11.534;2022-12-15T09:52:55;0.60;99.90
15967;DHT22;15175;48.154;11.534;2022-12-15T09:55:25;0.50;99.90
15967;DHT22;15175;48.154;11.534;2022-12-15T09:57:53;0.40;99.90
15967;DHT22;15175;48.154;11.534;2022-12-15T10:00:22;0.40;99.90
15967;DHT22;15175;48.154;11.534;2022-12-15T10:06:08;0.40;99.90
15967;DHT22;15175;48.154;11.534;2022-12-15T10:08:37;0.40;99.90
15967;DHT22;15175;48.154;11.534;2022-12-15T10:11:16;0.50;99.90
15967;DHT22;15175;48.154;11.534;2022-12-15T10:13:49;0.60;99.90
15967;DHT22;15175;48.154;11.534;2022-12-15T10:16:23;0.60;99.90
15967;DHT22;15175;48.154;11.534;2022-12-15T10:19:01;0.50;99.90
15967;DHT22;15175;48.154;11.534;2022-12-15T10:21:30;0.60;99.90
15967;DHT22;15175;48.154;11.534;2022-12-15T10:24:06;0.60;99.90
15967;DHT22;15175;48.154;11.534;2022-12-15T10:26:35;0.60;99.90
15967;DHT22;15175;48.154;11.534;2022-12-15T10:29:14;0.60;99.90
15967;DHT22;15175;48.154;11.534;2022-12-15T10:31:49;0.60;99.90
15967;DHT22;15175;48.154;11.534;2022-12-15T10:34:23;0.60;99.90
15967;DHT22;15175;48.154;11.534;2022-12-15T10:36:54;0.60;99.90
15967;DHT22;15175;48.154;11.534;2022-12-15T10:39:21;0.60;99.90
15967;DHT22;15175;48.154;11.534;2022-12-15T10:44:54;0.70;99.90
15967;DHT22;15175;48.154;11.534;2022-12-15T10:47:23;0.60;99.90
15967;DHT22;15175;48.154;11.534;2022-12-15T10:49:52;0.70;99.90
15967;DHT22;15175;48.154;11.534;2022-12-15T10:52:26;0.70;99.90
15967;DHT22;15175;48.154;11.534;2022-12-15T10:54:57;0.70;99.90
15967;DHT22;15175;48.154;11.534;2022-12-15T10:57:25;0.80;99.90
15967;DHT22;15175;48.154;11.534;2022-12-15T10:59:54;0.80;99.90
15967;DHT22;15175;48.154;11.534;2022-12-15T11:02:32;0.80;99.90
15967;DHT22;15175;48.154;11.534;2022-12-15T11:05:03;0.80;99.90
15967;DHT22;15175;48.154;11.534;2022-12-15T11:07:37;0.80;99.90
15967;DHT22;15175;48.154;11.534;2022-12-15T11:10:15;0.80;99.90
15967;DHT22;15175;48.154;11.534;2022-12-15T11:12:43;0.80;99.90
15967;DHT22;15175;48.154;11.534;2022-12-15T11:15:45;0.80;99.90
15967;DHT22;15175;48.154;11.534;2022-12-15T11:18:33;0.90;99.90
15967;DHT22;15175;48.154;11.534;2022-12-15T11:21:06;0.90;99.90
15967;DHT22;15175;48.154;11.534;2022-12-15T11:23:50;0.80;99.90
15967;DHT22;15175;48.154;11.534;2022-12-15T11:26:43;0.80;99.90
15967;DHT22;15175;48.154;11.534;2022-12-15T11:29:20;0.70;99.90
15967;DHT22;15175;48.154;11.534;2022-12-15T11:31:51;0.60;99.90
15967;DHT22;15175;48.154;11.534;2022-12-15T11:34:20;0.60;99.90
15967;DHT22;15175;48.154;11.534;2022-12-15T11:37:00;0.60;99.90
15967;DHT22;15175;48.154;11.534;2022-12-15T11:39:52;0.60;99.90
15967;DHT22;15175;48.154;11.534;2022-12-15T11:42:26;0.60;99.90
15967;DHT22;15175;48.154;11.534;2022-12-15T11:45:02;0.70;99.90
15967;DHT22;15175;48.154;11.534;2022-12-15T11:47:36;0.70;99.90
15967;DHT22;15175;48.154;11.534;2022-12-15T11:50:24;0.70;99.90
15967;DHT22;15175;48.154;11.534;2022-12-15T11:53:39;0.80;99.90
15967;DHT22;15175;48.154;11.534;2022-12-15T11:56:18;0.60;99.90
15967;DHT22;15175;48.154;11.534;2022-12-15T11:59:01;0.60;99.90
15967;DHT22;15175;48.154;11.534;2022-12-15T12:01:49;0.60;99.90
15967;DHT22;15175;48.154;11.534;2022-12-15T12:04:22;0.70;99.90
15967;DHT22;15175;48.154;11.534;2022-12-15T12:07:02;0.70;99.90
15967;DHT22;15175;48.154;11.534;2022-12-15T12:09:34;0.70;99.90
15967;DHT22;15175;48.154;11.534;2022-12-15T12:12:11;0.70;99.90
15967;DHT22;15175;48.154;11.534;2022-12-15T12:14:50;0.80;99.90
15967;DHT22;15175;48.154;11.534;2022-12-15T12:17:30;0.70;99.90
15967;DHT22;15175;48.154;11.534;2022-12-15T12:20:02;0.60;99.90
15967;DHT22;15175;48.154;11.534;2022-12-15T12:22:38;0.70;99.90
15967;DHT22;15175;48.154;11.534;2022-12-15T12:25:11;0.70;99.90
15967;DHT22;15175;48.154;11.534;2022-12-15T12:27:45;0.70;99.90
15967;DHT22;15175;48.154;11.534;2022-12-15T12:30:19;0.70;99.90
15967;DHT22;15175;48.154;11.534;2022-12-15T12:32:51;0.80;99.90
15967;DHT22;15175;48.154;11.534;2022-12-15T12:35:24;0.80;99.90
15967;DHT22;15175;48.154;11.534;2022-12-15T12:37:58;0.80;99.90
15967;DHT22;15175;48.154;11.534;2022-12-15T12:40:31;0.80;99.90
15967;DHT22;15175;48.154;11.534;2022-12-15T12:43:04;0.80;99.90
15967;DHT22;15175;48.154;11.534;2022-12-15T12:45:36;0.80;99.90
15967;DHT22;15175;48.154;11.534;2022-12-15T12:48:10;0.70;99.90
15967;DHT22;15175;48.154;11.534;2022-12-15T12:50:38;0.70;99.90
15967;DHT22;15175;48.154;11.534;2022-12-15T12:53:23;0.80;99.90
15967;DHT22;15175;48.154;11.534;2022-12-15T12:55:52;0.90;99.90
15967;DHT22;15175;48.154;11.534;2022-12-15T12:58:32;1.00;99.90
15967;DHT22;15175;48.154;11.534;2022-12-15T13:04:04;0.90;99.90
15967;DHT22;15175;48.154;11.534;2022-12-15T13:07:01;0.90;99.90
15967;DHT22;15175;48.154;11.534;2022-12-15T13:09:39;0.80;99.90
15967;DHT22;15175;48.154;11.534;2022-12-15T13:12:31;0.80;99.90
15967;DHT22;15175;48.154;11.534;2022-12-15T13:15:03;0.70;99.90
15967;DHT22;15175;48.154;11.534;2022-12-15T13:17:38;0.70;99.90
15967;DHT22;15175;48.154;11.534;2022-12-15T13:20:22;0.70;99.90
15967;DHT22;15175;48.154;11.534;2022-12-15T13:22:51;0.70;99.90
15967;DHT22;15175;48.154;11.534;2022-12-15T13:25:37;0.70;99.90
15967;DHT22;15175;48.154;11.534;2022-12-15T13:34:20;0.60;99.90
15967;DHT22;15175;48.154;11.534;2022-12-15T13:36:58;0.60;99.90
15967;DHT22;15175;48.154;11.534;2022-12-15T13:42:34;0.50;99.90
15967;DHT22;15175;48.154;11.534;2022-12-15T13:47:54;0.60;99.90
15967;DHT22;15175;48.154;11.534;2022-12-15T13:50:30;0.70;99.90
15967;DHT22;15175;48.154;11.534;2022-12-15T13:53:01;0.70;99.90
15967;DHT22;15175;48.154;11.534;2022-12-15T13:55:35;0.70;99.90
15967;DHT22;15175;48.154;11.534;2022-12-15T13:58:06;0.70;99.90
15967;DHT22;15175;48.154;11.534;2022-12-15T14:00:37;0.70;99.90
15967;DHT22;15175;48.154;11.534;2022-12-15T14:03:08;0.70;99.90
15967;DHT22;15175;48.154;11.534;2022-12-15T14:05:37;0.60;99.90
15967;DHT22;15175;48.154;11.534;2022-12-15T14:08:12;0.60;99.90
15967;DHT22;15175;48.154;11.534;2022-12-15T14:10:42;0.50;99.90
15967;DHT22;15175;48.154;11.534;2022-12-15T14:13:12;0.40;99.90
15967;DHT22;15175;48.154;11.534;2022-12-15T14:15:43;0.30;99.90
15967;DHT22;15175;48.154;11.534;2022-12-15T14:18:28;0.40;99.90
15967;DHT22;15175;48.154;11.534;2022-12-15T14:20:58;0.40;99.90
15967;DHT22;15175;48.154;11.534;2022-12-15T14:23:26;0.50;99.90
15967;DHT22;15175;48.154;11.534;2022-12-15T14:25:56;0.50;99.90
15967;DHT22;15175;48.154;11.534;2022-12-15T14:28:25;0.40;99.90
15967;DHT22;15175;48.154;11.534;2022-12-15T14:30:52;0.40;99.90
15967;DHT22;15175;48.154;11.534;2022-12-15T14:33:19;0.30;99.90
15967;DHT22;15175;48.154;11.534;2022-12-15T14:35:48;0.40;99.90
15967;DHT22;15175;48.154;11.534;2022-12-15T14:38:20;0.30;99.90
15967;DHT22;15175;48.154;11.534;2022-12-15T14:40:50;0.30;99.90
15967;DHT22;15175;48.154;11.534;2022-12-15T14:43:20;0.30;99.90
15967;DHT22;15175;48.154;11.534;2022-12-15T14:45:52;0.30;99.90
15967;DHT22;15175;48.154;11.534;2022-12-15T14:48:26;0.30;99.90
15967;DHT22;15175;48.154;11.534;2022-12-15T14:50:57;0.20;99.90
15967;DHT22;15175;48.154;11.534;2022-12-15T14:53:29;0.20;99.90
15967;DHT22;15175;48.154;11.534;2022-12-15T14:56:11;0.20;99.90
15967;DHT22;15175;48.154;11.534;2022-12-15T14:58:39;0.30;99.90
15967;DHT22;15175;48.154;11.534;2022-12-15T15:01:21;0.20;99.90
15967;DHT22;15175;48.154;11.534;2022-12-15T15:03:56;0.30;99.90
15967;DHT22;15175;48.154;11.534;2022-12-15T15:06:28;0.30;99.90
15967;DHT22;15175;48.154;11.534;2022-12-15T15:09:03;0.30;99.90
15967;DHT22;15175;48.154;11.534;2022-12-15T15:11:38;0.30;99.90
15967;DHT22;15175;48.154;11.534;2022-12-15T15:14:11;0.30;99.90
15967;DHT22;15175;48.154;11.534;2022-12-15T15:16:39;0.30;99.90
15967;DHT22;15175;48.154;11.534;2022-12-15T15:19:06;0.20;99.90
15967;DHT22;15175;48.154;11.534;2022-12-15T15:21:35;0.30;99.90
15967;DHT22;15175;48.154;11.534;2022-12-15T15:24:21;0.20;99.90
15967;DHT22;15175;48.154;11.534;2022-12-15T15:26:49;0.30;99.90
15967;DHT22;15175;48.154;11.534;2022-12-15T15:29:33;0.20;99.90
15967;DHT22;15175;48.154;11.534;2022-12-15T15:32:10;0.30;99.90
15967;DHT22;15175;48.154;11.534;2022-12-15T15:34:40;0.30;99.90
15967;DHT22;15175;48.154;11.534;2022-12-15T15:37:12;0.30;99.90
15967;DHT22;15175;48.154;11.534;2022-12-15T15:39:43;0.20;99.90
15967;DHT22;15175;48.154;11.534;2022-12-15T15:42:11;0.20;99.90
15967;DHT22;15175;48.154;11.534;2022-12-15T15:44:38;0.20;99.90
15967;DHT22;15175;48.154;11.534;2022-12-15T15:47:14;0.20;99.90
15967;DHT22;15175;48.154;11.534;2022-12-15T15:49:44;0.20;99.90
15967;DHT22;15175;48.154;11.534;2022-12-15T15:52:12;0.30;99.90
15967;DHT22;15175;48.154;11.534;2022-12-15T15:54:39;0.30;99.90
15967;DHT22;15175;48.154;11.534;2022-12-15T15:57:12;0.30;99.90
15967;DHT22;15175;48.154;11.534;2022-12-15T15:59:40;0.30;99.90
15967;DHT22;15175;48.154;11.534;2022-12-15T16:02:10;0.40;99.90
15967;DHT22;15175;48.154;11.534;2022-12-15T16:04:38;0.40;99.90
15967;DHT22;15175;48.154;11.534;2022-12-15T16:07:15;0.40;99.90
15967;DHT22;15175;48.154;11.534;2022-12-15T16:09:44;0.40;99.90
15967;DHT22;15175;48.154;11.534;2022-12-15T16:12:23;0.30;99.90
15967;DHT22;15175;48.154;11.534;2022-12-15T16:14:52;0.30;99.90
15967;DHT22;15175;48.154;11.534;2022-12-15T16:17:20;0.30;99.90
15967;DHT22;15175;48.154;11.534;2022-12-15T16:19:47;0.20;99.90
15967;DHT22;15175;48.154;11.534;2022-12-15T16:22:18;0.20;99.90
15967;DHT22;15175;48.154;11.534;2022-12-15T16:24:45;0.20;99.90
15967;DHT22;15175;48.154;11.534;2022-12-15T16:27:14;0.20;99.90
15967;DHT22;15175;48.154;11.534;2022-12-15T16:29:41;0.20;99.90
15967;DHT22;15175;48.154;11.534;2022-12-15T16:32:10;0.20;99.90
15967;DHT22;15175;48.154;11.534;2022-12-15T16:34:38;0.20;99.90